createdAt,value
2022-11-08T00:01:33.567Z,100501.20
2022-11-08T00:04:06.595Z,100502.75
2022-11-08T00:06:54.868Z,100500.02
2022-11-08T00:09:43.400Z,100496.51
2022-11-08T00:12:32.410Z,100496.21
2022-11-08T00:15:03.604Z,100493.85
2022-11-08T00:17:35.438Z,100494.19
2022-11-08T00:20:07.473Z,100494.86
2022-11-08T00:22:38.445Z,100499.91
2022-11-08T00:25:11.080Z,100499.84
2022-11-08T00:27:41.726Z,100505.47
2022-11-08T00:30:13.471Z,100502.41
2022-11-08T00:32:44.144Z,100499.76
2022-11-08T00:35:14.888Z,100499.98
2022-11-08T00:37:45.517Z,100503.77
2022-11-08T00:40:16.819Z,100503.86
2022-11-08T00:42:47.451Z,100501.52
2022-11-08T00:45:18.774Z,100498.11
2022-11-08T00:47:49.359Z,100496.30
2022-11-08T00:50:20.127Z,100500.80
2022-11-08T00:52:51.944Z,100495.38
2022-11-08T00:55:22.824Z,100493.97
2022-11-08T00:57:59.707Z,100491.77
2022-11-08T01:00:31.259Z,100489.34
2022-11-08T01:03:20.618Z,100491.73
2022-11-08T01:05:52.677Z,100491.19
2022-11-08T01:08:24.644Z,100492.30
2022-11-08T01:10:55.486Z,100487.98
2022-11-08T01:13:26.162Z,100491.48
2022-11-08T01:15:57.166Z,100492.52
2022-11-08T01:18:28.310Z,100485.48
2022-11-08T01:20:58.973Z,100486.05
2022-11-08T01:23:30.081Z,100484.91
2022-11-08T01:26:05.732Z,100484.90
2022-11-08T01:28:37.164Z,100488.02
2022-11-08T01:31:09.703Z,100484.73
2022-11-08T01:33:41.121Z,100485.16
2022-11-08T01:36:14.311Z,100482.52
2022-11-08T01:38:45.263Z,100480.11
2022-11-08T01:41:17.847Z,100474.25
2022-11-08T01:43:50.515Z,100475.03
2022-11-08T01:46:42.163Z,100471.17
2022-11-08T01:49:49.843Z,100478.48
2022-11-08T01:52:29.068Z,100477.51
2022-11-08T01:55:13.557Z,100480.83
2022-11-08T01:57:50.401Z,100482.65
2022-11-08T02:00:21.760Z,100483.84
2022-11-08T02:02:59.116Z,100481.77
2022-11-08T02:05:31.779Z,100485.64
2022-11-08T02:08:07.734Z,100482.02
2022-11-08T02:10:41.176Z,100481.52
2022-11-08T02:13:15.389Z,100481.91
2022-11-08T02:15:46.685Z,100478.83
2022-11-08T02:18:19.009Z,100476.02
2022-11-08T02:20:59.089Z,100478.66
2022-11-08T02:23:35.758Z,100479.55
2022-11-08T02:26:06.721Z,100475.36
2022-11-08T02:28:42.076Z,100476.80
2022-11-08T02:31:14.109Z,100477.77
2022-11-08T02:33:46.312Z,100475.56
2022-11-08T02:36:21.043Z,100475.42
2022-11-08T02:38:56.533Z,100471.58
2022-11-08T02:41:27.321Z,100471.66
2022-11-08T02:43:59.695Z,100473.35
2022-11-08T02:46:30.358Z,100472.45
2022-11-08T02:49:01.065Z,100472.55
2022-11-08T02:51:31.751Z,100470.20
2022-11-08T02:54:02.463Z,100469.77
2022-11-08T02:56:33.276Z,100473.76
2022-11-08T02:59:04.021Z,100473.80
2022-11-08T03:01:34.817Z,100474.54
2022-11-08T03:04:06.257Z,100474.55
2022-11-08T03:06:36.939Z,100477.48
2022-11-08T03:09:08.644Z,100477.06
2022-11-08T03:11:39.441Z,100474.61
2022-11-08T03:14:10.280Z,100478.46
2022-11-08T03:16:41.174Z,100477.90
2022-11-08T03:19:13.404Z,100483.25
2022-11-08T03:21:44.137Z,100487.79
2022-11-08T03:24:14.819Z,100488.33
2022-11-08T03:26:45.485Z,100485.67
2022-11-08T03:29:16.171Z,100486.10
2022-11-08T03:31:46.982Z,100485.63
2022-11-08T03:34:17.819Z,100482.81
2022-11-08T03:36:48.773Z,100484.30
2022-11-08T03:39:20.442Z,100487.95
2022-11-08T03:41:51.872Z,100487.24
2022-11-08T03:44:22.609Z,100489.28
2022-11-08T03:46:53.448Z,100494.84
2022-11-08T03:49:24.555Z,100492.58
2022-11-08T03:51:55.392Z,100496.42
2022-11-08T03:54:26.170Z,100495.52
2022-11-08T03:56:56.882Z,100497.55
2022-11-08T03:59:27.792Z,100500.48
2022-11-08T04:01:58.741Z,100504.70
2022-11-08T04:04:29.618Z,100502.00
2022-11-08T04:07:00.262Z,100501.29
2022-11-08T04:09:30.997Z,100499.52
2022-11-08T04:12:19.833Z,100498.37
2022-11-08T04:15:08.308Z,100492.44
2022-11-08T04:17:56.699Z,100484.59
2022-11-08T04:20:45.494Z,100484.73
2022-11-08T04:23:16.601Z,100490.30
2022-11-08T04:25:54.281Z,100486.96
2022-11-08T04:28:26.395Z,100485.33
2022-11-08T04:30:59.553Z,100484.55
2022-11-08T04:33:30.248Z,100487.80
2022-11-08T04:36:04.141Z,100487.77
2022-11-08T04:38:35.615Z,100481.41
2022-11-08T04:41:08.132Z,100478.63
2022-11-08T04:43:39.378Z,100473.48
2022-11-08T04:46:11.553Z,100477.63
2022-11-08T04:48:42.877Z,100476.01
2022-11-08T04:51:15.699Z,100474.54
2022-11-08T04:53:47.244Z,100480.83
2022-11-08T04:56:20.811Z,100484.84
2022-11-08T04:58:54.149Z,100487.50
2022-11-08T05:01:26.955Z,100486.08
2022-11-08T05:03:58.591Z,100488.38
2022-11-08T05:06:31.784Z,100494.55
2022-11-08T05:09:02.668Z,100492.05
2022-11-08T05:11:33.793Z,100491.96
2022-11-08T05:14:04.605Z,100493.17
2022-11-08T05:16:35.486Z,100489.73
2022-11-08T05:19:10.491Z,100490.06
2022-11-08T05:22:01.391Z,100491.45
2022-11-08T05:24:32.085Z,100492.14
2022-11-08T05:27:02.763Z,100496.21
2022-11-08T05:29:34.826Z,100501.79
2022-11-08T05:32:08.007Z,100507.09
2022-11-08T05:34:38.765Z,100502.93
2022-11-08T05:37:09.584Z,100507.15
2022-11-08T05:39:40.422Z,100509.72
2022-11-08T05:42:11.898Z,100514.09
2022-11-08T05:44:42.710Z,100517.32
2022-11-08T05:47:13.506Z,100521.21
2022-11-08T05:49:44.806Z,100523.17
2022-11-08T05:52:15.481Z,100522.83
2022-11-08T05:54:46.271Z,100525.27
2022-11-08T05:57:21.244Z,100522.21
2022-11-08T05:59:52.862Z,100517.43
2022-11-08T06:02:23.791Z,100517.77
2022-11-08T06:04:54.646Z,100516.85
2022-11-08T06:07:25.326Z,100517.39
2022-11-08T06:09:56.013Z,100525.20
2022-11-08T06:12:27.002Z,100522.18
2022-11-08T06:14:57.792Z,100524.69
2022-11-08T06:17:30.459Z,100522.00
2022-11-08T06:20:02.449Z,100524.96
2022-11-08T06:22:34.973Z,100527.46
2022-11-08T06:25:10.402Z,100527.27
2022-11-08T06:27:41.997Z,100524.21
2022-11-08T06:30:14.988Z,100529.15
2022-11-08T06:32:45.753Z,100528.80
2022-11-08T06:35:16.576Z,100528.28
2022-11-08T06:37:47.416Z,100531.23
2022-11-08T06:40:18.501Z,100533.02
2022-11-08T06:42:49.277Z,100530.20
2022-11-08T06:45:20.818Z,100533.39
2022-11-08T06:47:51.688Z,100535.14
2022-11-08T06:50:23.165Z,100533.77
2022-11-08T06:53:00.225Z,100531.06
2022-11-08T06:55:31.711Z,100530.85
2022-11-08T06:58:03.994Z,100532.37
2022-11-08T07:00:35.331Z,100539.90
2022-11-08T07:03:06.596Z,100541.96
2022-11-08T07:05:37.803Z,100545.91
2022-11-08T07:08:09.421Z,100549.80
2022-11-08T07:10:40.809Z,100549.48
2022-11-08T07:13:15.106Z,100547.39
2022-11-08T07:15:47.805Z,100547.77
2022-11-08T07:18:21.593Z,100550.96
2022-11-08T07:20:53.321Z,100548.02
2022-11-08T07:23:24.354Z,100548.17
2022-11-08T07:25:55.582Z,100549.52
2022-11-08T07:28:26.397Z,100552.34
2022-11-08T07:31:01.631Z,100554.41
2022-11-08T07:33:32.625Z,100555.30
2022-11-08T07:36:04.537Z,100556.14
2022-11-08T07:38:35.587Z,100555.13
2022-11-08T07:41:06.528Z,100554.60
2022-11-08T07:43:37.294Z,100551.66
2022-11-08T07:46:14.242Z,100554.73
2022-11-08T07:48:44.979Z,100556.91
2022-11-08T07:51:15.666Z,100555.19
2022-11-08T07:53:47.090Z,100558.07
2022-11-08T07:56:18.122Z,100555.46
2022-11-08T07:58:48.752Z,100553.30
2022-11-08T08:01:19.482Z,100550.35
2022-11-08T08:03:50.305Z,100552.80
2022-11-08T08:06:21.200Z,100550.56
2022-11-08T08:08:52.304Z,100549.58
2022-11-08T08:11:23.006Z,100550.59
2022-11-08T08:13:55.937Z,100552.46
2022-11-08T08:16:26.662Z,100544.48
2022-11-08T08:18:57.390Z,100543.92
2022-11-08T08:21:28.491Z,100546.73
2022-11-08T08:24:00.101Z,100545.23
2022-11-08T08:26:31.248Z,100545.47
2022-11-08T08:29:01.984Z,100544.21
2022-11-08T08:31:32.720Z,100547.58
2022-11-08T08:34:03.395Z,100544.04
2022-11-08T08:36:34.197Z,100544.66
2022-11-08T08:39:05.201Z,100545.07
2022-11-08T08:41:36.692Z,100542.71
2022-11-08T08:44:07.576Z,100545.48
2022-11-08T08:46:38.271Z,100548.86
2022-11-08T08:49:08.998Z,100546.51
2022-11-08T08:51:39.707Z,100550.62
2022-11-08T08:54:13.007Z,100546.77
2022-11-08T08:56:45.080Z,100546.86
2022-11-08T09:02:07.039Z,100542.52
2022-11-08T09:04:39.109Z,100537.48
2022-11-08T09:07:10.363Z,100538.61
2022-11-08T09:09:41.552Z,100533.69
2022-11-08T09:12:14.611Z,100530.73
2022-11-08T09:14:45.926Z,100527.13
2022-11-08T09:17:17.062Z,100531.65
2022-11-08T09:19:51.885Z,100532.52
2022-11-08T09:22:25.311Z,100536.73
2022-11-08T09:24:56.866Z,100537.33
2022-11-08T09:27:28.334Z,100538.27
2022-11-08T09:29:59.670Z,100544.65
2022-11-08T09:32:54.069Z,100541.64
2022-11-08T09:35:21.847Z,100545.91
2022-11-08T09:37:53.756Z,100550.45
2022-11-08T09:40:28.924Z,100553.70
2022-11-08T09:43:09.050Z,100553.45
2022-11-08T09:45:47.007Z,100556.30
2022-11-08T09:48:26.255Z,100553.81
2022-11-08T09:50:59.553Z,100555.02
2022-11-08T09:53:38.925Z,100551.67
2022-11-08T09:56:17.830Z,100549.41
2022-11-08T09:58:54.686Z,100548.27
2022-11-08T10:01:27.495Z,100544.63
2022-11-08T10:04:01.090Z,100549.54
2022-11-08T10:06:48.766Z,100545.00
2022-11-08T10:09:33.491Z,100542.60
2022-11-08T10:12:18.963Z,100543.63
2022-11-08T10:15:03.905Z,100542.83
2022-11-08T10:17:50.700Z,100538.88
2022-11-08T10:20:32.345Z,100538.32
2022-11-08T10:23:15.754Z,100537.69
2022-11-08T10:25:49.496Z,100535.15
2022-11-08T10:28:23.839Z,100535.77
2022-11-08T10:30:56.665Z,100534.73
2022-11-08T10:33:33.614Z,100532.67
2022-11-08T10:36:10.354Z,100530.95
2022-11-08T10:38:51.392Z,100527.27
2022-11-08T10:41:27.825Z,100523.44
2022-11-08T10:44:05.783Z,100525.95
2022-11-08T10:46:44.193Z,100525.20
2022-11-08T10:49:22.450Z,100518.86
2022-11-08T10:51:55.590Z,100520.02
2022-11-08T10:54:47.857Z,100513.60
2022-11-08T10:57:25.140Z,100513.02
2022-11-08T10:59:57.090Z,100504.73
2022-11-08T11:02:33.189Z,100499.79
2022-11-08T11:05:25.301Z,100504.55
2022-11-08T11:08:19.428Z,100506.19
2022-11-08T11:10:51.641Z,100501.38
2022-11-08T11:16:05.665Z,100497.19
2022-11-08T11:18:38.972Z,100493.20
2022-11-08T11:21:13.211Z,100495.39
2022-11-08T11:23:49.986Z,100495.15
2022-11-08T11:26:32.415Z,100493.52
2022-11-08T11:29:17.976Z,100488.52
2022-11-08T11:31:54.225Z,100488.15
2022-11-08T11:34:44.954Z,100490.45
2022-11-08T11:37:24.287Z,100488.23
2022-11-08T11:40:04.146Z,100486.91
2022-11-08T11:42:47.675Z,100485.59
2022-11-08T11:45:27.773Z,100486.69
2022-11-08T11:48:03.603Z,100487.56
2022-11-08T11:50:38.332Z,100494.73
2022-11-08T11:53:17.875Z,100493.34
2022-11-08T11:55:59.768Z,100494.12
2022-11-08T11:58:52.826Z,100485.78
2022-11-08T12:01:33.832Z,100484.95
2022-11-08T12:04:31.601Z,100482.59
2022-11-08T12:07:08.101Z,100484.95
2022-11-08T12:09:51.307Z,100485.02
2022-11-08T12:12:35.072Z,100483.19
2022-11-08T12:15:21.275Z,100485.91
2022-11-08T12:18:41.375Z,100485.45
2022-11-08T12:21:16.614Z,100485.06
2022-11-08T12:24:03.973Z,100481.65
2022-11-08T12:26:42.839Z,100483.25
2022-11-08T12:29:27.992Z,100481.28
2022-11-08T12:32:18.413Z,100473.56
2022-11-08T12:35:04.517Z,100472.02
2022-11-08T12:37:48.229Z,100471.52
2022-11-08T12:40:26.316Z,100471.30
2022-11-08T12:43:13.984Z,100470.52
2022-11-08T12:45:58.385Z,100465.89
2022-11-08T12:48:54.381Z,100469.60
2022-11-08T12:51:35.529Z,100467.91
2022-11-08T12:54:21.410Z,100463.31
2022-11-08T12:56:54.386Z,100460.91
2022-11-08T12:59:29.264Z,100463.30
2022-11-08T13:02:02.625Z,100464.02
2022-11-08T13:04:45.333Z,100464.90
2022-11-08T13:07:25.983Z,100466.42
2022-11-08T13:10:02.148Z,100462.19
2022-11-08T13:12:42.132Z,100461.88
2022-11-08T13:15:22.776Z,100459.88
2022-11-08T13:18:25.432Z,100453.96
2022-11-08T13:20:56.678Z,100449.91
2022-11-08T13:23:31.771Z,100443.99
2022-11-08T13:26:23.554Z,100451.98
2022-11-08T13:28:55.420Z,100453.79
2022-11-08T13:31:41.337Z,100449.23
2022-11-08T13:34:39.026Z,100443.84
2022-11-08T13:37:38.389Z,100443.98
2022-11-08T13:40:28.877Z,100446.05
2022-11-08T13:43:20.053Z,100441.02
2022-11-08T13:45:52.373Z,100438.96
2022-11-08T13:48:43.934Z,100437.13
2022-11-08T13:51:29.976Z,100440.98
2022-11-08T13:54:03.291Z,100440.46
2022-11-08T13:56:49.829Z,100440.70
2022-11-08T14:00:00.051Z,100441.20
2022-11-08T14:02:41.162Z,100441.07
2022-11-08T14:05:42.555Z,100444.27
2022-11-08T14:08:39.643Z,100448.20
2022-11-08T14:11:48.640Z,100449.01
2022-11-08T14:14:31.068Z,100449.13
2022-11-08T14:17:30.083Z,100446.36
2022-11-08T14:20:19.498Z,100445.35
2022-11-08T14:22:50.796Z,100441.20
2022-11-08T14:25:30.203Z,100439.04
2022-11-08T14:28:01.024Z,100435.75
2022-11-08T14:30:33.645Z,100440.77
2022-11-08T14:33:19.043Z,100443.58
2022-11-08T14:35:59.719Z,100447.19
2022-11-08T14:38:33.645Z,100449.39
2022-11-08T14:41:06.014Z,100452.53
2022-11-08T14:43:45.949Z,100457.38
2022-11-08T14:46:23.889Z,100459.58
2022-11-08T14:49:08.835Z,100459.39
2022-11-08T14:51:39.540Z,100457.60
2022-11-08T14:54:20.096Z,100456.75
2022-11-08T14:56:51.150Z,100462.41
2022-11-08T14:59:23.852Z,100464.34
2022-11-08T15:01:54.790Z,100460.95
2022-11-08T15:04:27.704Z,100461.36
2022-11-08T15:07:00.208Z,100457.66
2022-11-08T15:09:34.680Z,100453.35
2022-11-08T15:12:09.095Z,100452.86
2022-11-08T15:14:49.942Z,100451.16
2022-11-08T15:17:35.418Z,100451.45
2022-11-08T15:20:22.977Z,100452.90
2022-11-08T15:22:56.586Z,100458.18
2022-11-08T15:25:34.685Z,100460.13
2022-11-08T15:28:22.364Z,100458.64
2022-11-08T15:30:58.168Z,100453.14
2022-11-08T15:33:34.810Z,100447.83
2022-11-08T15:36:14.307Z,100442.95
2022-11-08T15:38:49.090Z,100449.60
2022-11-08T15:41:39.343Z,100447.17
2022-11-08T15:44:16.293Z,100448.57
2022-11-08T15:46:47.127Z,100449.42
2022-11-08T15:49:21.229Z,100446.44
2022-11-08T15:51:53.521Z,100444.84
2022-11-08T15:54:26.190Z,100446.63
2022-11-08T15:56:58.476Z,100445.61
2022-11-08T15:59:31.232Z,100446.33
2022-11-08T16:02:03.764Z,100448.86
2022-11-08T16:04:34.811Z,100444.15
2022-11-08T16:07:05.734Z,100447.02
2022-11-08T16:09:36.695Z,100445.64
2022-11-08T16:12:10.163Z,100442.71
2022-11-08T16:14:42.788Z,100443.05
2022-11-08T16:17:15.919Z,100440.41
2022-11-08T16:19:49.962Z,100443.95
2022-11-08T16:22:20.711Z,100444.94
2022-11-08T16:24:51.421Z,100450.69
2022-11-08T16:27:22.287Z,100452.13
2022-11-08T16:29:53.533Z,100451.15
2022-11-08T16:32:24.271Z,100451.62
2022-11-08T16:34:54.899Z,100449.48
2022-11-08T16:37:27.774Z,100452.77
2022-11-08T16:40:01.235Z,100453.23
2022-11-08T16:42:31.948Z,100457.19
2022-11-08T16:45:02.770Z,100454.80
2022-11-08T16:47:34.941Z,100455.24
2022-11-08T16:50:07.892Z,100452.21
2022-11-08T16:52:38.688Z,100451.90
2022-11-08T16:55:17.423Z,100453.81
2022-11-08T16:57:49.190Z,100454.59
2022-11-08T17:00:21.465Z,100454.06
2022-11-08T17:02:55.120Z,100452.65
2022-11-08T17:05:26.727Z,100451.64
2022-11-08T17:07:57.507Z,100449.52
2022-11-08T17:10:30.189Z,100447.56
2022-11-08T17:13:00.923Z,100446.58
2022-11-08T17:15:32.068Z,100447.02
2022-11-08T17:18:03.622Z,100447.95
2022-11-08T17:20:34.340Z,100446.02
2022-11-08T17:23:05.098Z,100447.48
2022-11-08T17:25:39.947Z,100446.52
2022-11-08T17:28:10.946Z,100446.30
2022-11-08T17:30:44.559Z,100446.93
2022-11-08T17:33:16.442Z,100446.79
2022-11-08T17:35:47.448Z,100450.75
2022-11-08T17:38:18.338Z,100448.95
2022-11-08T17:40:49.055Z,100447.78
2022-11-08T17:43:20.897Z,100445.31
2022-11-08T17:45:53.998Z,100451.42
2022-11-08T17:48:24.726Z,100453.66
2022-11-08T17:50:56.317Z,100451.52
2022-11-08T17:53:27.516Z,100453.41
2022-11-08T17:55:59.477Z,100453.88
2022-11-08T17:58:33.585Z,100454.48
2022-11-08T18:01:07.184Z,100451.23
2022-11-08T18:03:38.027Z,100452.52
2022-11-08T18:06:11.506Z,100455.54
2022-11-08T18:08:42.913Z,100460.07
2022-11-08T18:11:13.652Z,100458.95
2022-11-08T18:13:44.447Z,100461.89
2022-11-08T18:16:17.036Z,100462.66
2022-11-08T18:18:50.162Z,100460.09
2022-11-08T18:21:21.369Z,100457.72
2022-11-08T18:23:52.141Z,100456.61
2022-11-08T18:26:22.808Z,100453.00
2022-11-08T18:28:53.509Z,100457.69
2022-11-08T18:31:26.212Z,100454.09
2022-11-08T18:33:57.750Z,100455.73
2022-11-08T18:36:31.051Z,100458.90
2022-11-08T18:39:03.847Z,100452.50
2022-11-08T18:41:35.383Z,100448.88
2022-11-08T18:44:06.506Z,100449.50
2022-11-08T18:46:41.892Z,100449.58
2022-11-08T18:49:14.118Z,100446.86
2022-11-08T18:51:44.748Z,100441.25
2022-11-08T18:54:15.463Z,100440.83
2022-11-08T18:56:46.147Z,100441.45
2022-11-08T18:59:17.256Z,100442.77
2022-11-08T19:01:48.061Z,100437.69
2022-11-08T19:04:18.920Z,100447.80
2022-11-08T19:06:54.405Z,100448.84
2022-11-08T19:09:25.599Z,100449.77
2022-11-08T19:11:57.177Z,100453.89
2022-11-08T19:14:31.047Z,100456.49
2022-11-08T19:17:01.790Z,100462.32
2022-11-08T19:19:32.493Z,100461.38
2022-11-08T19:22:03.176Z,100462.72
2022-11-08T19:24:34.375Z,100458.69
2022-11-08T19:27:05.949Z,100462.20
2022-11-08T19:29:36.661Z,100463.56
2022-11-08T19:32:07.953Z,100463.38
2022-11-08T19:34:38.754Z,100467.95
2022-11-08T19:37:09.450Z,100468.19
2022-11-08T19:39:40.153Z,100470.56
2022-11-08T19:42:10.861Z,100469.80
2022-11-08T19:44:41.598Z,100471.35
2022-11-08T19:47:12.342Z,100471.86
2022-11-08T19:49:43.002Z,100473.45
2022-11-08T19:52:13.786Z,100476.35
2022-11-08T19:54:44.544Z,100476.07
2022-11-08T19:57:15.417Z,100477.63
2022-11-08T19:59:46.122Z,100476.95
2022-11-08T20:02:16.843Z,100477.73
2022-11-08T20:04:48.000Z,100477.65
2022-11-08T20:07:18.720Z,100477.64
2022-11-08T20:09:49.448Z,100477.42
2022-11-08T20:12:20.130Z,100480.52
2022-11-08T20:14:52.833Z,100481.52
2022-11-08T20:17:23.506Z,100478.31
2022-11-08T20:19:54.194Z,100479.15
2022-11-08T20:22:24.898Z,100477.52
2022-11-08T20:24:56.245Z,100480.57
2022-11-08T20:27:26.895Z,100477.83
2022-11-08T20:29:57.618Z,100475.77
2022-11-08T20:32:28.354Z,100467.50
2022-11-08T20:34:59.090Z,100464.86
2022-11-08T20:37:29.724Z,100460.36
2022-11-08T20:40:00.449Z,100458.84
2022-11-08T20:42:31.158Z,100461.29
2022-11-08T20:45:01.937Z,100461.23
2022-11-08T20:47:32.978Z,100457.89
2022-11-08T20:50:03.673Z,100460.63
2022-11-08T20:52:34.449Z,100458.95
2022-11-08T20:55:05.475Z,100460.44
2022-11-08T20:57:36.229Z,100458.02
2022-11-08T21:00:13.652Z,100458.50
2022-11-08T21:02:48.424Z,100454.54
2022-11-08T21:05:19.370Z,100455.82
2022-11-08T21:10:47.728Z,100458.11
2022-11-08T21:13:19.432Z,100456.58
2022-11-08T21:15:50.989Z,100453.83
2022-11-08T21:18:22.603Z,100452.46
2022-11-08T21:21:02.915Z,100450.35
2022-11-08T21:23:34.143Z,100451.24
2022-11-08T21:26:05.683Z,100452.67
2022-11-08T21:29:01.011Z,100450.26
2022-11-08T21:31:56.399Z,100451.36
2022-11-08T21:34:49.365Z,100452.77
2022-11-08T21:37:21.469Z,100452.48
2022-11-08T21:39:52.028Z,100450.13
2022-11-08T21:42:22.591Z,100446.13
2022-11-08T21:44:53.161Z,100445.65
2022-11-08T21:47:23.840Z,100446.93
2022-11-08T21:49:55.186Z,100444.53
2022-11-08T21:52:25.747Z,100448.48
2022-11-08T21:54:56.356Z,100440.73
2022-11-08T21:57:26.893Z,100443.42
2022-11-08T21:59:57.626Z,100445.58
2022-11-08T22:02:28.361Z,100452.73
2022-11-08T22:04:58.930Z,100455.03
2022-11-08T22:07:29.579Z,100456.10
2022-11-08T22:10:00.252Z,100456.52
2022-11-08T22:12:30.805Z,100456.77
2022-11-08T22:15:01.432Z,100458.89
2022-11-08T22:17:32.001Z,100456.75
2022-11-08T22:20:02.550Z,100454.79
2022-11-08T22:22:33.129Z,100452.69
2022-11-08T22:25:03.690Z,100451.33
2022-11-08T22:27:34.756Z,100451.21
2022-11-08T22:30:13.999Z,100451.61
2022-11-08T22:32:47.509Z,100452.51
2022-11-08T22:35:23.283Z,100454.07
2022-11-08T22:37:53.919Z,100457.15
2022-11-08T22:40:26.913Z,100459.56
2022-11-08T22:42:57.580Z,100462.41
2022-11-08T22:45:31.708Z,100463.16
2022-11-08T22:48:04.532Z,100468.23
2022-11-08T22:50:35.895Z,100465.91
2022-11-08T22:53:08.215Z,100462.89
2022-11-08T22:55:38.977Z,100464.56
2022-11-08T22:58:09.744Z,100460.95
2022-11-08T23:00:40.403Z,100459.75
2022-11-08T23:03:11.122Z,100458.55
2022-11-08T23:05:42.693Z,100454.86
2022-11-08T23:08:13.298Z,100455.73
2022-11-08T23:11:10.851Z,100457.15
2022-11-08T23:14:01.855Z,100453.45
2022-11-08T23:16:35.212Z,100450.46
2022-11-08T23:19:26.102Z,100447.67
2022-11-08T23:22:15.089Z,100445.09
2022-11-08T23:24:46.291Z,100443.83
2022-11-08T23:27:37.404Z,100445.27
2022-11-08T23:30:30.074Z,100444.78
2022-11-08T23:33:01.052Z,100444.27
2022-11-08T23:35:32.145Z,100445.52
2022-11-08T23:38:02.673Z,100444.50
2022-11-08T23:40:51.031Z,100443.48
2022-11-08T23:43:40.045Z,100444.38
2022-11-08T23:46:12.767Z,100445.94
2022-11-08T23:48:43.645Z,100447.02
2022-11-08T23:51:14.333Z,100444.92
2022-11-08T23:53:45.188Z,100442.11
2022-11-08T23:56:23.456Z,100439.85
2022-11-08T23:58:54.737Z,100438.48
